createdAt,value
2023-04-02T00:00:02.450Z,0
2023-04-02T00:05:02.367Z,0
2023-04-02T00:10:02.365Z,0
2023-04-02T00:15:02.465Z,0
2023-04-02T00:20:02.437Z,0
2023-04-02T00:25:02.376Z,0
2023-04-02T00:30:02.408Z,0
2023-04-02T00:35:02.446Z,0
2023-04-02T00:40:02.424Z,0
2023-04-02T00:45:02.448Z,0
2023-04-02T00:50:02.433Z,0
2023-04-02T00:55:02.466Z,0
2023-04-02T01:00:02.471Z,0
2023-04-02T01:05:02.602Z,0
2023-04-02T01:10:02.457Z,0
2023-04-02T01:15:02.466Z,0
2023-04-02T01:20:02.519Z,0
2023-04-02T01:25:02.427Z,0
2023-04-02T01:30:02.504Z,0
2023-04-02T01:35:02.428Z,0
2023-04-02T01:40:02.446Z,0
2023-04-02T01:45:02.505Z,0
2023-04-02T01:50:02.552Z,0
2023-04-02T01:55:02.670Z,0
2023-04-02T02:00:02.612Z,0
2023-04-02T02:05:02.657Z,0
2023-04-02T02:10:02.672Z,0
2023-04-02T02:15:02.700Z,0
2023-04-02T02:20:02.494Z,0
2023-04-02T02:25:02.582Z,0
2023-04-02T02:30:02.541Z,0
2023-04-02T02:35:02.569Z,0
2023-04-02T02:40:02.534Z,0
2023-04-02T02:45:02.539Z,0
2023-04-02T02:50:02.506Z,0
2023-04-02T02:55:02.589Z,0
2023-04-02T03:00:02.518Z,0
2023-04-02T03:05:02.561Z,0
2023-04-02T03:10:02.582Z,0
2023-04-02T03:15:02.605Z,0
2023-04-02T03:20:02.614Z,0
2023-04-02T03:25:02.560Z,0
2023-04-02T03:30:02.598Z,0
2023-04-02T03:35:02.525Z,0
2023-04-02T03:40:02.643Z,0
2023-04-02T03:45:02.570Z,0
2023-04-02T03:50:02.582Z,0
2023-04-02T03:55:02.589Z,0
2023-04-02T04:00:02.622Z,0
2023-04-02T04:05:02.601Z,0
2023-04-02T04:10:02.679Z,0
2023-04-02T04:15:02.661Z,0
2023-04-02T04:20:02.798Z,0
2023-04-02T04:25:02.801Z,0
2023-04-02T04:30:02.839Z,0
2023-04-02T04:35:01.224Z,0
2023-04-02T04:40:01.204Z,0
2023-04-02T04:45:01.207Z,0
2023-04-02T04:50:01.220Z,0
2023-04-02T04:55:01.243Z,0.31078306878306877
2023-04-02T05:00:01.210Z,0.42227513227513225
2023-04-02T05:05:01.223Z,0.4207724867724867
2023-04-02T05:10:01.260Z,0.5806772486772487
2023-04-02T05:15:01.183Z,0.6066772486772487
2023-04-02T05:20:01.252Z,0.8439894179894181
2023-04-02T05:25:01.293Z,1.0053544973544972
2023-04-02T05:30:01.449Z,1.1750370370370369
2023-04-02T05:35:01.381Z,1.35184126984127
2023-04-02T05:40:01.422Z,1.5555873015873019
2023-04-02T05:45:01.378Z,1.795015873015873
2023-04-02T05:50:01.415Z,2.2751957671957674
2023-04-02T05:55:01.371Z,3.3219682539682536
2023-04-02T06:00:01.449Z,4.713089947089947
2023-04-02T06:05:01.324Z,6.068084656084656
2023-04-02T06:10:01.263Z,7.53631746031746
2023-04-02T06:15:01.286Z,9.046444444444445
2023-04-02T06:20:01.334Z,10.569904761904763
2023-04-02T06:25:01.339Z,12.489862433862434
2023-04-02T06:30:01.269Z,14.45831746031746
2023-04-02T06:35:01.277Z,15.922899470899472
2023-04-02T06:40:01.321Z,16.716306878306877
2023-04-02T06:45:01.335Z,18.61862433862434
2023-04-02T06:50:01.313Z,20.847619047619048
2023-04-02T06:55:01.362Z,23.04806349206349
2023-04-02T07:00:01.294Z,25.232751322751323
2023-04-02T07:05:01.402Z,27.448285714285714
2023-04-02T07:10:01.313Z,29.571227513227516
2023-04-02T07:15:01.308Z,31.800920634920633
2023-04-02T07:20:01.361Z,34.000349206349206
2023-04-02T07:25:01.330Z,36.26875132275133
2023-04-02T07:30:01.383Z,38.209269841269844
2023-04-02T07:35:01.320Z,40.25573544973545
2023-04-02T07:40:01.304Z,42.24916402116403
2023-04-02T07:45:02.091Z,43.934232804232806
2023-04-02T07:50:01.466Z,45.98035978835979
2023-04-02T07:55:01.782Z,47.827089947089945
2023-04-02T08:00:01.588Z,49.72073015873016
2023-04-02T08:05:01.507Z,51.31510052910053
2023-04-02T08:10:01.530Z,52.967195767195776
2023-04-02T08:15:01.525Z,54.58450793650793
2023-04-02T08:20:01.530Z,56.22108994708995
2023-04-02T08:25:01.597Z,57.91910052910053
2023-04-02T08:30:01.343Z,59.31602116402117
2023-04-02T08:35:01.435Z,60.595989417989415
2023-04-02T08:40:01.421Z,61.958708994709
2023-04-02T08:45:05.889Z,63.46534391534392
2023-04-02T08:50:01.421Z,64.85412698412698
2023-04-02T08:55:01.423Z,66.24762962962963
2023-04-02T09:00:01.364Z,67.40024338624339
2023-04-02T09:05:01.560Z,68.67156613756613
2023-04-02T09:10:01.407Z,69.74952380952381
2023-04-02T09:15:01.440Z,70.91500529100529
2023-04-02T09:20:01.466Z,72.04516402116403
2023-04-02T09:25:01.520Z,73.39983068783069
2023-04-02T09:30:01.482Z,74.56561904761905
2023-04-02T09:35:01.714Z,75.60559788359788
2023-04-02T09:40:01.445Z,76.36183068783069
2023-04-02T09:45:01.480Z,77.50913227513227
2023-04-02T09:50:01.553Z,78.42517460317461
2023-04-02T09:55:01.598Z,79.7251216931217
2023-04-02T10:00:01.640Z,80.8297671957672
2023-04-02T10:05:01.727Z,81.30635978835979
2023-04-02T10:10:01.720Z,81.7328253968254
2023-04-02T10:15:01.743Z,82.24896296296296
2023-04-02T10:20:01.562Z,83.17655026455026
2023-04-02T10:25:01.512Z,84.12265608465609
2023-04-02T10:30:01.551Z,84.59801058201057
2023-04-02T10:35:01.446Z,84.73620105820106
2023-04-02T10:40:01.611Z,84.90689947089948
2023-04-02T10:45:01.566Z,85.18956613756613
2023-04-02T10:50:01.576Z,85.80916402116402
2023-04-02T10:55:01.597Z,85.94278306878307
2023-04-02T11:00:01.576Z,86.07092063492064
2023-04-02T11:05:02.166Z,86.68954497354497
2023-04-02T11:10:01.512Z,86.73844444444444
2023-04-02T11:15:01.548Z,87.21892063492064
2023-04-02T11:20:01.580Z,87.21281481481482
2023-04-02T11:25:01.585Z,87.61714285714285
2023-04-02T11:30:01.604Z,87.87898412698412
2023-04-02T11:35:06.898Z,87.86016931216932
2023-04-02T11:40:01.673Z,88.1160634920635
2023-04-02T11:45:01.666Z,87.84419047619048
2023-04-02T11:50:01.735Z,87.67687830687831
2023-04-02T11:55:01.595Z,87.78154497354497
2023-04-02T12:00:01.568Z,87.56077248677249
2023-04-02T12:05:01.533Z,87.03108994708995
2023-04-02T12:10:01.572Z,86.23493121693122
2023-04-02T12:15:01.611Z,85.68537566137566
2023-04-02T12:20:02.791Z,85.69868783068783
2023-04-02T12:25:01.615Z,85.73696296296296
2023-04-02T12:30:01.562Z,85.75681481481482
2023-04-02T12:35:01.555Z,85.06983068783069
2023-04-02T12:40:01.561Z,84.51807407407408
2023-04-02T12:45:01.590Z,84.63285714285715
2023-04-02T12:50:01.743Z,83.36658201058201
2023-04-02T12:55:01.694Z,83.03429629629629
2023-04-02T13:00:01.758Z,82.216
2023-04-02T13:05:01.779Z,81.39851851851851
2023-04-02T13:10:01.825Z,81.53360846560847
2023-04-02T13:15:01.814Z,80.905291005291
2023-04-02T13:20:01.693Z,80.1202962962963
2023-04-02T13:25:01.680Z,78.71584126984126
2023-04-02T13:30:01.720Z,77.52783068783069
2023-04-02T13:35:01.661Z,76.56115343915344
2023-04-02T13:40:02.700Z,75.5735873015873
2023-04-02T13:45:01.744Z,74.60845502645502
2023-04-02T13:50:01.804Z,73.37230687830689
2023-04-02T13:55:01.831Z,72.7822328042328
2023-04-02T14:00:01.616Z,65.7344761904762
2023-04-02T14:05:01.665Z,63.77019047619048
2023-04-02T14:10:01.642Z,70.53075132275131
2023-04-02T14:15:01.750Z,70.80842328042328
2023-04-02T14:20:01.879Z,37.671619047619046
2023-04-02T14:25:01.823Z,67.01906878306878
2023-04-02T14:30:01.828Z,64.16301587301587
2023-04-02T14:35:01.699Z,65.5630582010582
2023-04-02T14:40:01.749Z,32.19757671957672
2023-04-02T14:45:01.671Z,66.34038095238095
2023-04-02T14:50:01.780Z,63.76731216931218
2023-04-02T14:55:01.670Z,63.17624338624338
2023-04-02T15:00:01.829Z,61.07137566137566
2023-04-02T15:05:01.903Z,45.792084656084654
2023-04-02T15:10:01.712Z,54.98661375661376
2023-04-02T15:15:01.694Z,53.08628571428572
2023-04-02T15:20:01.733Z,51.195629629629636
2023-04-02T15:25:01.756Z,48.23310052910053
2023-04-02T15:30:01.808Z,18.180433862433862
2023-04-02T15:35:01.865Z,24.47653968253968
2023-04-02T15:40:01.855Z,6.374984126984128
2023-04-02T15:45:01.898Z,14.761851851851853
2023-04-02T15:50:01.948Z,39.02128042328042
2023-04-02T15:55:01.881Z,29.65794708994709
2023-04-02T16:00:01.767Z,9.493661375661375
2023-04-02T16:05:01.823Z,29.78416931216932
2023-04-02T16:10:01.777Z,13.968878306878308
2023-04-02T16:15:01.754Z,10.122179894179894
2023-04-02T16:20:02.267Z,19.67394708994709
2023-04-02T16:25:01.787Z,19.75688888888889
2023-04-02T16:30:01.855Z,10.176560846560848
2023-04-02T16:35:19.538Z,21.258772486772486
2023-04-02T16:40:01.784Z,23.082063492063494
2023-04-02T16:45:01.890Z,20.214402116402116
2023-04-02T16:50:01.791Z,16.99247619047619
2023-04-02T16:55:01.805Z,14.75773544973545
2023-04-02T17:00:01.898Z,11.552666666666669
2023-04-02T17:05:01.889Z,7.547883597883597
2023-04-02T17:10:01.872Z,4.842370370370371
2023-04-02T17:15:01.852Z,3.5665079365079366
2023-04-02T17:20:01.814Z,2.316772486772487
2023-04-02T17:25:01.824Z,1.3036084656084657
2023-04-02T17:30:01.858Z,0.5597460317460318
2023-04-02T17:35:01.948Z,0.22707936507936508
2023-04-02T17:40:02.014Z,0.23506878306878307
2023-04-02T17:45:01.976Z,0.1617883597883598
2023-04-02T17:50:02.088Z,0
2023-04-02T17:55:02.024Z,0
2023-04-02T18:00:01.978Z,0
2023-04-02T18:05:01.953Z,0
2023-04-02T18:10:02.119Z,0
2023-04-02T18:15:01.999Z,0
2023-04-02T18:20:02.091Z,0
2023-04-02T18:25:02.042Z,0
2023-04-02T18:30:02.045Z,0
2023-04-02T18:35:02.058Z,0
2023-04-02T18:40:01.869Z,0
2023-04-02T18:45:01.914Z,0
2023-04-02T18:50:01.897Z,0
2023-04-02T18:55:01.952Z,0
2023-04-02T19:00:01.868Z,0
2023-04-02T19:05:01.932Z,0
2023-04-02T19:10:01.942Z,0
2023-04-02T19:15:01.922Z,0
2023-04-02T19:20:02.015Z,0
2023-04-02T19:25:02.027Z,0
2023-04-02T19:30:02.023Z,0
2023-04-02T19:35:01.923Z,0
2023-04-02T19:40:01.942Z,0
2023-04-02T19:45:01.954Z,0
2023-04-02T19:50:01.980Z,0
2023-04-02T19:55:02.068Z,0
2023-04-02T20:00:01.971Z,0
2023-04-02T20:05:01.958Z,0
2023-04-02T20:10:01.993Z,0
2023-04-02T20:15:01.985Z,0
2023-04-02T20:20:01.969Z,0
2023-04-02T20:25:02.069Z,0
2023-04-02T20:30:02.042Z,0
2023-04-02T20:35:01.995Z,0
2023-04-02T20:40:01.995Z,0
2023-04-02T20:45:01.997Z,0
2023-04-02T20:50:02.047Z,0
2023-04-02T20:55:02.086Z,0
2023-04-02T21:00:01.993Z,0
2023-04-02T21:05:02.067Z,0
2023-04-02T21:10:02.073Z,0
2023-04-02T21:15:03.038Z,0
2023-04-02T21:20:02.101Z,0
2023-04-02T21:25:02.061Z,0
2023-04-02T21:30:02.044Z,0
2023-04-02T21:35:02.096Z,0
2023-04-02T21:40:02.008Z,0
2023-04-02T21:45:02.051Z,0
2023-04-02T21:50:02.209Z,0
2023-04-02T21:55:02.074Z,0
2023-04-02T22:00:02.108Z,0
2023-04-02T22:05:02.151Z,0
2023-04-02T22:10:02.084Z,0
2023-04-02T22:15:02.108Z,0
2023-04-02T22:20:02.221Z,0
2023-04-02T22:25:02.229Z,0
2023-04-02T22:30:02.260Z,0
2023-04-02T22:35:02.270Z,0
2023-04-02T22:40:02.236Z,0
2023-04-02T22:45:02.234Z,0
2023-04-02T22:50:02.279Z,0
2023-04-02T22:55:02.283Z,0
2023-04-02T23:00:02.368Z,0
2023-04-02T23:05:02.318Z,0
2023-04-02T23:10:03.888Z,0
2023-04-02T23:15:02.141Z,0
2023-04-02T23:20:02.371Z,0
2023-04-02T23:25:02.143Z,0
2023-04-02T23:30:02.214Z,0
2023-04-02T23:35:02.121Z,0
2023-04-02T23:40:02.161Z,0
2023-04-02T23:45:02.144Z,0
2023-04-02T23:50:02.135Z,0
2023-04-02T23:55:02.307Z,0
